• Join FlightAware (Why Join?)
  • Login
  • US Flag 
10:55PM EDT


 

Airport Tracker/Info


-or-


 

Live Flight TrackerFlight Track Log ✈ N700QA ✈ 11-Jul-2013 ✈ KLAX - KASE

Flight Track Log - Related Links

Times and Time Zones

All times are in EDT time to prevent confusion due to time zone crossing. See the N700QA flight status page for this flight to view local times or setup timezone preferences in your user account.

Time Position Orientation Groundspeed Altitude Reporting Facility
EDT Latitude Longitude Course Direction KTS MPH feet Rate Location/Type
08:34AM 33.9156 -118.4578 North 178 205 2,600  Level Los Angeles Center
08:35AM 33.8728 -118.5069 224° Southwest 214 246 4,700 1,980 Climbing Los Angeles Center
08:36AM 33.8225 -118.5278 199° South 235 270 6,600 1,980 Climbing Los Angeles Center
08:37AM 33.7414 -118.5144 172° South 251 289 8,800 2,040 Climbing Los Angeles Center
08:38AM 33.6883 -118.4561 138° Southeast 271 312 10,700 1,800 Climbing Los Angeles Center
08:39AM 33.6689 -118.3706 105° East 285 328 12,500 1,680 Climbing Los Angeles Center
08:40AM 34.0289 -117.8167 North  Level FlightAware Approximate
08:40AM 33.7022 -118.2808 66° East 302 348 14,200  Level Los Angeles Center
08:41AM 33.7356 -118.1886 66° East 308 354 15,900 1,680 Climbing Los Angeles Center
08:42AM 33.7703 -118.0944 66° East 310 357 17,600 1,380 Climbing Los Angeles Center
08:43AM 33.8275 -118.0183 48° Northeast 317 365 18,700 1,140 Climbing Los Angeles Center
08:44AM 33.9003 -117.9533 37° Northeast 327 376 19,900 1,260 Climbing Los Angeles Center
08:45AM 33.9739 -117.8842 38° Northeast 333 383 21,300 1,140 Climbing Los Angeles Center
08:46AM 34.0506 -117.8158 36° Northeast 340 391 22,300 840 Climbing Los Angeles Center
08:47AM 34.1233 -117.7350 43° Northeast 357 411 23,100 900 Climbing Los Angeles Center
08:48AM 34.1900 -117.6450 48° Northeast 357 411 24,200 900 Climbing Los Angeles Center
08:50AM 34.2714 -117.5333 49° Northeast 367 422 25,000 840 Climbing Los Angeles Center
08:51AM 34.3408 -117.4403 48° Northeast 373 429 26,000 840 Climbing Los Angeles Center
08:52AM 34.3981 -117.3611 49° Northeast 370 426 26,700 660 Climbing Los Angeles Center
08:53AM 34.4678 -117.2644 49° Northeast 381 438 27,400 600 Climbing Los Angeles Center
08:54AM 34.5375 -117.1686 49° Northeast 382 440 28,000 600 Climbing Los Angeles Center
08:55AM 34.6081 -117.0717 48° Northeast 385 443 28,700 600 Climbing Los Angeles Center
08:56AM 34.6939 -116.9531 49° Northeast 391 450 29,300 540 Climbing Los Angeles Center
08:57AM 34.7656 -116.8531 49° Northeast 394 453 29,900 420 Climbing Los Angeles Center
08:58AM 34.8378 -116.7528 49° Northeast 396 456 30,200 300 Climbing Los Angeles Center
08:59AM 34.9114 -116.6497 49° Northeast 402 463 30,600 360 Climbing Los Angeles Center
09:00AM 34.9861 -116.5458 49° Northeast 408 470 31,000 480 Climbing Los Angeles Center
09:01AM 35.0661 -116.4472 45° Northeast 410 472 31,600 480 Climbing Los Angeles Center
09:02AM 35.1467 -116.3503 45° Northeast 409 471 32,000 420 Climbing Los Angeles Center
09:03AM 35.2264 -116.2506 46° Northeast 410 472 32,500 540 Climbing Los Angeles Center
09:04AM 35.3039 -116.1508 46° Northeast 408 470 33,100 480 Climbing Los Angeles Center
09:05AM 35.3806 -116.0528 46° Northeast 401 461 33,500 420 Climbing Los Angeles Center
09:06AM 35.4586 -115.9556 45° Northeast 401 461 34,000 480 Climbing Los Angeles Center
09:07AM 35.5500 -115.8428 45° Northeast 398 458 34,500 360 Climbing Los Angeles Center
09:08AM 35.6264 -115.7456 46° Northeast 396 456 34,800 240 Climbing Los Angeles Center
09:09AM 35.7036 -115.6478 46° Northeast 398 458 35,000 60 Climbing Los Angeles Center
09:10AM 35.7806 -115.5478 47° Northeast 402 463 35,000  Level Los Angeles Center
09:11AM 35.8586 -115.4456 47° Northeast 408 470 35,100  Climbing Los Angeles Center
09:12AM 35.9392 -115.3419 46° Northeast 415 478 35,100  Level Los Angeles Center
09:13AM 36.0203 -115.2383 46° Northeast 421 484 35,100  Level Los Angeles Center
09:14AM 36.1017 -115.1325 46° Northeast 427 491 35,100  Level Los Angeles Center
09:15AM 36.1864 -115.0272 45° Northeast 433 498 35,100  Level Los Angeles Center
09:16AM 36.2694 -114.9208 46° Northeast 433 498 35,100 -60 Level Los Angeles Center
09:17AM 36.3536 -114.8131 46° Northeast 436 502 35,000  Descending Los Angeles Center
09:18AM 36.4544 -114.6819 46° Northeast 439 505 35,100  Climbing Los Angeles Center
09:19AM 36.5378 -114.5728 46° Northeast 437 503 35,100 -60 Level Los Angeles Center
09:20AM 36.6217 -114.4642 46° Northeast 436 502 35,000 -60 Descending Los Angeles Center
09:21AM 36.7044 -114.3539 47° Northeast 437 503 35,000  Level Los Angeles Center
09:22AM 36.7692 -114.2636 48° Northeast 437 503 35,100  Climbing Los Angeles Center
09:23AM 36.8419 -114.1097 59° Northeast 430 495 35,100 -60 Level Los Angeles Center
09:24AM 36.9044 -113.9831 58° Northeast 429 494 35,000  Descending Los Angeles Center
09:25AM 36.9697 -113.8486 59° Northeast 432 497 35,100  Climbing Los Angeles Center
09:26AM 37.0314 -113.7194 59° Northeast 433 498 35,100  Level Los Angeles Center
09:27AM 37.0917 -113.5900 60° Northeast 431 496 35,100 -60 Level Los Angeles Center
09:28AM 37.1408 -113.4881 59° Northeast 430 495 35,000 -60 Descending Los Angeles Center
09:29AM 37.2133 -113.3331 60° Northeast 430 495 35,000  Level Los Angeles Center
09:30AM 37.2611 -113.2314 59° Northeast 427 491 35,000  Level Los Angeles Center
09:31AM 37.3456 -113.0522 59° Northeast 428 493 35,100  Climbing Los Angeles Center
09:32AM 37.4044 -112.9239 60° Northeast 429 494 35,000 -60 Descending Los Angeles Center
09:33AM 37.4503 -112.8211 61° Northeast 430 495 35,000  Level Salt Lake Center
09:34AM 37.5106 -112.6928 59° Northeast 434 499 35,000  Level Salt Lake Center
09:35AM 37.5708 -112.5658 59° Northeast 432 497 35,000  Level Salt Lake Center
09:36AM 37.6419 -112.4106 60° Northeast 430 495 35,000  Level Salt Lake Center
09:37AM 37.7022 -112.2803 60° Northeast 432 497 35,000  Level Salt Lake Center
09:38AM 37.7639 -112.1500 59° Northeast 433 498 35,000  Level Salt Lake Center
09:39AM 37.8253 -112.0183 59° Northeast 435 501 35,000  Level Salt Lake Center
09:40AM 37.8856 -111.8858 60° Northeast 436 502 35,000  Level Salt Lake Center
09:41AM 37.9475 -111.7531 59° Northeast 439 505 35,000  Level Salt Lake Center
09:42AM 38.0089 -111.6194 60° Northeast 439 505 35,000  Level Salt Lake Center
09:43AM 38.0700 -111.4844 60° Northeast 441 507 35,000  Level Salt Lake Center
09:44AM 38.1439 -111.3225 60° Northeast 443 510 35,100  Climbing Salt Lake Center
09:45AM 38.2047 -111.1869 60° Northeast 442 509 35,100  Level Salt Lake Center
09:46AM 38.2658 -111.0519 60° Northeast 442 509 35,100  Level Salt Lake Center
09:47AM 38.3231 -110.9242 60° Northeast 439 505 35,100  Level Salt Lake Center
09:48AM 38.3889 -110.7725 61° Northeast 439 505 35,100 -60 Level Salt Lake Center
09:49AM 38.4456 -110.6419 61° Northeast 439 505 35,000  Descending Salt Lake Center
09:50AM 38.4978 -110.4811 67° East 440 506 35,100  Climbing Salt Lake Center
09:51AM 38.5436 -110.3444 67° East 439 505 35,000  Descending Salt Lake Center
09:52AM 38.5944 -110.1833 68° East 439 505 35,100  Climbing Salt Lake Center
09:53AM 38.6203 -110.0392 77° East 436 502 35,000 -600 Descending Salt Lake Center
09:54AM 38.6461 -109.8914 77° East 442 509 33,900 -900 Descending Salt Lake Center
09:56AM 38.6803 -109.7172 76° East 451 519 33,200 -480 Descending Salt Lake Center
09:57AM 38.7069 -109.5733 77° East 439 505 33,000 -120 Descending Salt Lake Center
09:58AM 38.7372 -109.4114 76° East 424 488 33,000  Level Salt Lake Center
09:59AM 38.7611 -109.2756 77° East 414 476 33,000  Level Salt Lake Center
10:00AM 38.7911 -109.1175 76° East 410 472 33,000  Level Salt Lake Center
10:01AM 38.8144 -108.9817 78° East 409 471 33,000  Level Salt Lake Center
10:02AM 38.8428 -108.8214 77° East 412 474 33,000  Level Salt Lake Center
10:03AM 38.8675 -108.6828 77° East 417 480 33,000 -120 Level Salt Lake Center
10:04AM 38.9069 -108.4492 78° East 417 480 32,700 -960 Descending Denver Center
10:05AM 38.9381 -108.2792 77° East 441 507 30,400 -1,980 Descending Denver Center
10:06AM 38.9703 -108.1019 77° East 456 525 28,300 -1,920 Descending Denver Center
10:08AM 38.9953 -107.9531 78° East 448 516 26,500 -2,040 Descending Denver Center
10:09AM 39.0247 -107.7869 77° East 433 498 24,200 -2,040 Descending Denver Center
10:10AM 39.0481 -107.6483 78° East 421 484 22,300 -1,860 Descending Denver Center
10:11AM 39.0744 -107.4922 78° East 405 466 20,400 -1,140 Descending Denver Center
10:12AM 39.0947 -107.3686 78° East 379 436 20,000 -240 Descending Denver Center
10:13AM 39.1478 -107.2581 58° Northeast 338 389 20,000 -60 Level Denver Center
10:14AM 39.2061 -107.1889 43° Northeast 339 390 19,900 -660 Descending Denver Center
10:15AM 39.2925 -107.1214 31° Northeast 304 350 18,700 -1,080 Descending Denver Center
10:16AM 39.3658 -107.1550 340° North 281 323 17,700 -720 Descending Denver Center
10:17AM 39.4289 -107.1958 333° Northwest 271 312 17,300 -360 Descending Denver Center
10:18AM 39.5125 -107.1814 North 285 328 17,000 -360 Descending Denver Center
10:19AM 39.5786 -107.1439 24° Northeast 274 315 16,600 -480 Descending Denver Center
10:20AM 39.5828 -107.0447 87° East 255 293 16,100 -300 Descending Denver Center
10:21AM 39.5242 -107.0178 160° South 238 274 16,000 -300 Descending Denver Center
10:22AM 39.4558 -106.9903 163° South 231 266 15,500 -1,020 Descending Denver Center
10:23AM 39.3919 -106.9872 178° South 226 260 13,900 -1,920 Descending Denver Center
10:24AM 39.3422 -106.9578 155° Southeast 205 236 11,600 -1,980 Descending Denver Center
10:25AM 39.3078 -106.9261 145° Southeast 199 229 9,900 -1,500 Descending Denver Center
10:26AM 39.2589 -106.8789 143° Southeast 186 214 8,500 -1,380 Descending Denver Center